Terminal Aerodrome Forecast
Issued by NWS Mt. Holly, NJ

Current Version | Previous Version | Text Only | Print | Product List | Glossary On
Versions: 1 2 3 4 5 6 7 8 9 10 11 12 13 14 15 16 17 18 19 20
678
FTUS41 KPHI 311720
TAFTTN
TAF
KTTN 311720Z 3118/0118 04008KT P6SM FEW040
     FM312200 36005KT P6SM FEW040
     FM010000 16007KT P6SM FEW250
     FM010400 VRB02KT 4SM BR SCT250
     FM011400 09007KT P6SM BKN250=

USA.gov is the U.S. government's official web portal to all federal, state and local government web resources and services.